createdAt,value
2018-02-27T00:02:27.638Z,-10.80
2018-02-27T00:04:55.423Z,-10.80
2018-02-27T00:07:23.195Z,-10.80
2018-02-27T00:09:51.013Z,-10.80
2018-02-27T00:12:18.880Z,-10.80
2018-02-27T00:14:46.705Z,-10.90
2018-02-27T00:17:14.811Z,-10.90
2018-02-27T00:19:42.630Z,-10.90
2018-02-27T00:22:10.430Z,-10.90
2018-02-27T00:24:39.071Z,-10.80
2018-02-27T00:27:06.855Z,-10.90
2018-02-27T00:29:35.967Z,-10.80
2018-02-27T00:32:03.801Z,-10.80
2018-02-27T00:34:31.617Z,-10.80
2018-02-27T00:36:59.621Z,-10.80
2018-02-27T00:39:27.448Z,-10.70
2018-02-27T00:41:55.250Z,-10.70
2018-02-27T00:44:23.025Z,-10.70
2018-02-27T00:46:52.077Z,-10.60
2018-02-27T00:49:19.838Z,-10.70
2018-02-27T00:51:47.601Z,-10.60
2018-02-27T00:54:15.422Z,-10.70
2018-02-27T00:56:43.954Z,-10.70
2018-02-27T00:59:11.722Z,-10.70
2018-02-27T01:01:39.569Z,-10.70
2018-02-27T01:04:07.332Z,-10.70
2018-02-27T01:06:35.094Z,-10.80
2018-02-27T01:09:02.933Z,-10.80
2018-02-27T01:11:30.714Z,-10.70
2018-02-27T01:13:58.473Z,-10.80
2018-02-27T01:19:02.442Z,-10.80
2018-02-27T01:21:30.302Z,-10.80
2018-02-27T01:23:58.842Z,-10.80
2018-02-27T01:26:26.612Z,-10.80
2018-02-27T01:28:54.468Z,-10.70
2018-02-27T01:31:22.261Z,-10.80
2018-02-27T01:33:50.039Z,-10.80
2018-02-27T01:36:18.630Z,-10.90
2018-02-27T01:38:47.166Z,-10.90
2018-02-27T01:41:14.943Z,-11.00
2018-02-27T01:43:42.757Z,-10.90
2018-02-27T01:46:10.584Z,-10.90
2018-02-27T01:48:39.120Z,-11.00
2018-02-27T01:51:15.006Z,-11.10
2018-02-27T01:53:42.780Z,-11.10
2018-02-27T01:56:11.341Z,-11.10
2018-02-27T01:58:39.511Z,-11.10
2018-02-27T02:01:07.358Z,-11.10
2018-02-27T02:03:35.117Z,-11.20
2018-02-27T02:06:02.932Z,-11.20
2018-02-27T02:08:31.478Z,-11.30
2018-02-27T02:10:59.303Z,-11.40
2018-02-27T02:13:27.211Z,-11.40
2018-02-27T02:15:55.014Z,-11.40
2018-02-27T02:18:22.794Z,-11.40
2018-02-27T02:20:50.623Z,-11.50
2018-02-27T02:23:19.157Z,-11.60
2018-02-27T02:25:47.013Z,-11.60
2018-02-27T02:28:14.866Z,-11.60
2018-02-27T02:30:42.700Z,-11.60
2018-02-27T02:33:11.270Z,-11.70
2018-02-27T02:35:39.868Z,-11.70
2018-02-27T02:38:07.714Z,-11.70
2018-02-27T02:40:35.455Z,-11.70
2018-02-27T02:43:03.538Z,-11.70
2018-02-27T02:45:32.100Z,-11.80
2018-02-27T02:47:59.874Z,-11.80
2018-02-27T02:50:27.717Z,-11.80
2018-02-27T02:52:55.487Z,-11.80
2018-02-27T02:55:23.253Z,-11.90
2018-02-27T02:57:51.073Z,-11.90
2018-02-27T03:00:18.848Z,-11.90
2018-02-27T03:02:46.610Z,-11.90
2018-02-27T03:05:14.458Z,-11.90
2018-02-27T03:07:42.879Z,-11.90
2018-02-27T03:10:10.668Z,-11.90
2018-02-27T03:12:39.406Z,-11.90
2018-02-27T03:15:07.342Z,-11.90
2018-02-27T03:17:35.136Z,-12.00
2018-02-27T03:20:02.973Z,-12.00
2018-02-27T03:22:30.790Z,-12.00
2018-02-27T03:24:58.549Z,-12.00
2018-02-27T03:27:26.372Z,-12.00
2018-02-27T03:29:54.145Z,-12.00
2018-02-27T03:32:22.719Z,-12.10
2018-02-27T03:34:50.563Z,-12.10
2018-02-27T03:37:18.400Z,-12.10
2018-02-27T03:39:46.200Z,-12.10
2018-02-27T03:42:14.276Z,-12.10
2018-02-27T03:44:42.069Z,-12.10
2018-02-27T03:47:09.845Z,-12.10
2018-02-27T03:49:37.879Z,-12.10
2018-02-27T03:52:05.645Z,-12.20
2018-02-27T03:54:33.409Z,-12.20
2018-02-27T03:57:01.229Z,-12.20
2018-02-27T03:59:29.029Z,-12.20
2018-02-27T04:01:57.335Z,-12.20
2018-02-27T04:04:25.248Z,-12.20
2018-02-27T04:06:53.365Z,-12.20
2018-02-27T04:09:21.211Z,-12.20
2018-02-27T04:11:49.070Z,-12.20
2018-02-27T04:14:16.850Z,-12.30
2018-02-27T04:16:44.686Z,-12.30
2018-02-27T04:19:12.549Z,-12.30
2018-02-27T04:21:40.646Z,-12.30
2018-02-27T04:24:08.462Z,-12.30
2018-02-27T04:26:36.293Z,-12.30
2018-02-27T04:29:04.854Z,-12.40
2018-02-27T04:31:32.628Z,-12.40
2018-02-27T04:34:01.281Z,-12.40
2018-02-27T04:36:29.051Z,-12.30
2018-02-27T04:38:56.839Z,-12.40
2018-02-27T04:41:25.424Z,-12.40
2018-02-27T04:43:55.106Z,-12.40
2018-02-27T04:46:23.657Z,-12.40
2018-02-27T04:48:51.475Z,-12.40
2018-02-27T04:51:20.028Z,-12.50
2018-02-27T04:53:47.803Z,-12.50
2018-02-27T04:56:15.691Z,-12.50
2018-02-27T04:58:43.525Z,-12.50
2018-02-27T05:01:11.526Z,-12.50
2018-02-27T05:03:39.351Z,-12.40
2018-02-27T05:06:07.114Z,-12.40
2018-02-27T05:08:35.177Z,-12.50
2018-02-27T05:11:03.866Z,-12.50
2018-02-27T05:13:31.754Z,-12.50
2018-02-27T05:15:59.839Z,-12.50
2018-02-27T05:18:28.533Z,-12.40
2018-02-27T05:20:56.354Z,-12.50
2018-02-27T05:23:24.896Z,-12.40
2018-02-27T05:25:52.750Z,-12.50
2018-02-27T05:28:20.545Z,-12.40
2018-02-27T05:30:48.311Z,-12.50
2018-02-27T05:33:16.375Z,-12.50
2018-02-27T05:35:44.158Z,-12.50
2018-02-27T05:38:12.472Z,-12.50
2018-02-27T05:40:40.313Z,-12.50
2018-02-27T05:43:08.845Z,-12.50
2018-02-27T05:45:37.523Z,-12.50
2018-02-27T05:48:05.363Z,-12.60
2018-02-27T05:50:33.136Z,-12.50
2018-02-27T05:53:00.991Z,-12.50
2018-02-27T05:55:28.832Z,-12.50
2018-02-27T05:57:56.656Z,-12.40
2018-02-27T06:00:24.576Z,-12.40
2018-02-27T06:02:52.398Z,-12.40
2018-02-27T06:05:20.960Z,-12.40
2018-02-27T06:07:48.804Z,-12.40
2018-02-27T06:10:16.622Z,-12.30
2018-02-27T06:12:45.177Z,-12.20
2018-02-27T06:15:12.973Z,-12.30
2018-02-27T06:17:41.606Z,-12.20
2018-02-27T06:20:09.393Z,-12.20
2018-02-27T06:22:37.775Z,-12.10
2018-02-27T06:25:06.379Z,-11.70
2018-02-27T06:27:34.166Z,-11.80
2018-02-27T06:30:01.946Z,-11.00
2018-02-27T06:32:29.779Z,-10.20
2018-02-27T06:34:57.570Z,-10.00
2018-02-27T06:37:25.343Z,-10.40
2018-02-27T06:39:53.199Z,-10.70
2018-02-27T06:42:20.966Z,-11.00
2018-02-27T06:44:48.755Z,-10.70
2018-02-27T06:47:16.602Z,-10.30
2018-02-27T06:49:45.191Z,-9.20
2018-02-27T06:52:13.061Z,-9.20
2018-02-27T06:54:40.933Z,-9.50
2018-02-27T06:57:10.347Z,-9.50
2018-02-27T06:59:38.889Z,-8.60
2018-02-27T07:02:06.766Z,-8.60
2018-02-27T07:04:34.538Z,-8.30
2018-02-27T07:07:03.149Z,-7.00
2018-02-27T07:09:30.978Z,-7.00
2018-02-27T07:11:58.741Z,-6.80
2018-02-27T07:14:26.517Z,-6.60
2018-02-27T07:16:54.364Z,-6.70
2018-02-27T07:19:22.134Z,-6.80
2018-02-27T07:21:50.704Z,-6.10
2018-02-27T07:24:19.306Z,-6.00
2018-02-27T07:26:47.847Z,-6.20
2018-02-27T07:29:15.754Z,-6.20
2018-02-27T07:31:43.589Z,-5.70
2018-02-27T07:34:11.362Z,-5.00
2018-02-27T07:36:39.170Z,-4.30
2018-02-27T07:39:06.993Z,-3.90
2018-02-27T07:41:35.527Z,-2.80
2018-02-27T07:44:03.302Z,-2.90
2018-02-27T07:46:31.133Z,-3.80
2018-02-27T07:48:58.901Z,-3.80
2018-02-27T07:51:26.670Z,-3.90
2018-02-27T07:53:54.485Z,-3.70
2018-02-27T07:56:23.011Z,-1.80
2018-02-27T07:58:50.774Z,-1.90
2018-02-27T08:01:18.590Z,-2.00
2018-02-27T08:03:47.122Z,-2.60
2018-02-27T08:06:14.899Z,-2.60
2018-02-27T08:08:42.740Z,-1.60
2018-02-27T08:11:10.516Z,-0.70
2018-02-27T08:13:38.291Z,0.50
2018-02-27T08:16:06.114Z,-1.10
2018-02-27T08:18:33.877Z,-1.60
2018-02-27T08:21:01.638Z,-3.00
2018-02-27T08:23:29.472Z,-2.90
2018-02-27T08:25:58.010Z,-3.20
2018-02-27T08:28:25.778Z,-3.20
2018-02-27T08:30:53.606Z,-3.10
2018-02-27T08:33:21.371Z,-2.70
2018-02-27T08:35:49.177Z,-2.60
2018-02-27T08:38:17.048Z,-2.30
2018-02-27T08:40:44.835Z,-1.80
2018-02-27T08:43:12.622Z,-2.00
2018-02-27T08:45:40.463Z,-1.60
2018-02-27T08:48:08.987Z,-0.90
2018-02-27T08:50:36.759Z,-1.00
2018-02-27T08:53:04.586Z,-3.30
2018-02-27T08:55:32.354Z,-5.30
2018-02-27T08:58:00.123Z,-4.40
2018-02-27T09:00:27.951Z,-3.70
2018-02-27T09:02:56.486Z,-4.90
2018-02-27T09:05:24.246Z,-4.90
2018-02-27T09:07:52.078Z,-6.30
2018-02-27T09:10:19.845Z,-6.60
2018-02-27T09:12:47.613Z,-4.90
2018-02-27T09:15:15.428Z,-2.10
2018-02-27T09:17:43.285Z,-0.20
2018-02-27T09:20:11.091Z,-0.70
2018-02-27T09:22:38.915Z,-2.20
2018-02-27T09:25:06.687Z,-4.50
2018-02-27T09:27:35.211Z,-6.50
2018-02-27T09:30:03.047Z,-6.50
2018-02-27T09:32:30.821Z,-6.60
2018-02-27T09:34:58.600Z,-6.80
2018-02-27T09:37:26.439Z,-7.00
2018-02-27T09:39:54.209Z,-6.90
2018-02-27T09:42:21.972Z,-6.80
2018-02-27T09:44:49.818Z,-6.80
2018-02-27T09:47:17.593Z,-6.60
2018-02-27T09:49:45.376Z,-6.90
2018-02-27T09:52:13.209Z,-6.90
2018-02-27T09:54:40.981Z,-6.80
2018-02-27T09:57:08.746Z,-7.10
2018-02-27T09:59:36.606Z,-7.10
2018-02-27T10:02:04.370Z,-7.00
2018-02-27T10:04:32.143Z,-7.10
2018-02-27T10:06:59.977Z,-7.40
2018-02-27T10:09:28.506Z,-7.40
2018-02-27T10:11:56.265Z,-7.40
2018-02-27T10:14:24.082Z,-7.50
2018-02-27T10:16:52.609Z,-7.70
2018-02-27T10:19:20.389Z,-7.70
2018-02-27T10:21:48.223Z,-7.60
2018-02-27T10:24:15.990Z,-7.50
2018-02-27T10:26:43.766Z,-7.50
2018-02-27T10:29:11.613Z,-7.50
2018-02-27T10:31:39.390Z,-7.70
2018-02-27T10:34:07.182Z,-7.50
2018-02-27T10:36:35.756Z,-7.40
2018-02-27T10:39:03.568Z,-7.40
2018-02-27T10:41:31.334Z,-7.30
2018-02-27T10:43:59.181Z,-7.10
2018-02-27T10:46:27.021Z,-7.00
2018-02-27T10:48:55.581Z,-7.00
2018-02-27T10:51:23.401Z,-7.00
2018-02-27T10:53:51.164Z,-7.00
2018-02-27T10:56:18.939Z,-7.00
2018-02-27T10:58:46.961Z,-7.10
2018-02-27T11:01:20.454Z,-7.20
2018-02-27T11:03:49.034Z,-7.30
2018-02-27T11:06:17.569Z,-7.00
2018-02-27T11:08:45.360Z,-7.00
2018-02-27T11:11:13.189Z,-6.80
2018-02-27T11:13:40.963Z,-6.70
2018-02-27T11:16:08.738Z,-6.70
2018-02-27T11:18:36.558Z,-6.80
2018-02-27T11:21:04.318Z,-6.90
2018-02-27T11:23:32.086Z,-7.00
2018-02-27T11:25:59.907Z,-7.00
2018-02-27T11:28:28.452Z,-7.20
2018-02-27T11:30:56.214Z,-7.20
2018-02-27T11:33:24.038Z,-7.10
2018-02-27T11:35:51.808Z,-6.90
2018-02-27T11:38:19.575Z,-6.60
2018-02-27T11:40:47.399Z,-6.30
2018-02-27T11:43:15.935Z,-6.40
2018-02-27T11:45:43.703Z,-6.50
2018-02-27T11:48:11.532Z,-6.50
2018-02-27T11:50:39.309Z,-6.70
2018-02-27T11:53:07.088Z,-6.90
2018-02-27T11:55:34.906Z,-7.00
2018-02-27T11:58:02.690Z,-6.80
2018-02-27T12:00:30.471Z,-6.50
2018-02-27T12:02:58.299Z,-6.50
2018-02-27T12:05:26.072Z,-6.60
2018-02-27T12:07:53.830Z,-6.60
2018-02-27T12:10:21.653Z,-6.50
2018-02-27T12:12:49.429Z,-6.60
2018-02-27T12:15:17.958Z,-6.80
2018-02-27T12:17:45.779Z,-6.80
2018-02-27T12:20:14.310Z,-6.90
2018-02-27T12:22:42.079Z,-6.90
2018-02-27T12:25:09.900Z,-6.90
2018-02-27T12:27:37.663Z,-6.80
2018-02-27T12:30:05.431Z,-6.70
2018-02-27T12:32:33.266Z,-6.60
2018-02-27T12:35:01.823Z,-6.30
2018-02-27T12:37:29.602Z,-6.30
2018-02-27T12:39:58.229Z,-6.20
2018-02-27T12:42:26.013Z,-6.20
2018-02-27T12:44:53.796Z,-6.00
2018-02-27T12:47:22.399Z,-6.10
2018-02-27T12:49:50.942Z,-6.10
2018-02-27T12:52:18.713Z,-6.10
2018-02-27T12:54:46.535Z,-6.10
2018-02-27T12:57:14.300Z,-6.00
2018-02-27T12:59:42.089Z,-6.10
2018-02-27T13:02:10.212Z,-6.00
2018-02-27T13:04:38.002Z,-6.20
2018-02-27T13:07:05.785Z,-6.30
2018-02-27T13:09:33.614Z,-6.40
2018-02-27T13:12:01.395Z,-6.30
2018-02-27T13:14:29.162Z,-6.50
2018-02-27T13:16:56.989Z,-6.40
2018-02-27T13:19:24.754Z,-6.30
2018-02-27T13:21:52.526Z,-6.10
2018-02-27T13:24:20.395Z,-6.00
2018-02-27T13:26:48.163Z,-5.80
2018-02-27T13:29:15.928Z,-5.70
2018-02-27T13:31:43.745Z,-5.60
2018-02-27T13:34:12.287Z,-6.00
2018-02-27T13:36:40.086Z,-6.00
2018-02-27T13:39:08.661Z,-6.00
2018-02-27T13:41:37.218Z,-6.10
2018-02-27T13:44:04.979Z,-6.10
2018-02-27T13:46:32.800Z,-6.00
2018-02-27T13:49:04.001Z,-6.00
2018-02-27T13:51:28.388Z,-5.90
2018-02-27T13:53:56.971Z,-5.80
2018-02-27T13:56:25.520Z,-5.80
2018-02-27T13:58:53.292Z,-5.90
2018-02-27T14:01:21.132Z,-5.90
2018-02-27T14:03:48.907Z,-6.00
2018-02-27T14:06:16.670Z,-6.10
2018-02-27T14:08:44.494Z,-6.30
2018-02-27T14:11:12.274Z,-6.20
2018-02-27T14:13:40.055Z,-6.20
2018-02-27T14:16:07.921Z,-6.10
2018-02-27T14:18:35.715Z,-6.10
2018-02-27T14:21:04.343Z,-6.40
2018-02-27T14:23:32.190Z,-6.40
2018-02-27T14:25:59.958Z,-6.50
2018-02-27T14:28:27.775Z,-6.60
2018-02-27T14:30:55.598Z,-6.50
2018-02-27T14:33:23.373Z,-6.30
2018-02-27T14:35:51.148Z,-6.20
2018-02-27T14:38:18.973Z,-6.20
2018-02-27T14:40:46.733Z,-6.30
2018-02-27T14:43:14.501Z,-6.40
2018-02-27T14:45:42.322Z,-6.60
2018-02-27T14:48:10.858Z,-6.50
2018-02-27T14:50:38.624Z,-6.60
2018-02-27T14:53:06.447Z,-6.40
2018-02-27T14:55:34.213Z,-6.50
2018-02-27T14:58:01.988Z,-6.60
2018-02-27T15:00:29.831Z,-6.50
2018-02-27T15:02:57.598Z,-6.50
2018-02-27T15:05:25.361Z,-6.50
2018-02-27T15:07:53.189Z,-6.60
2018-02-27T15:10:20.955Z,-6.60
2018-02-27T15:12:48.727Z,-6.50
2018-02-27T15:15:17.313Z,-6.50
2018-02-27T15:17:45.846Z,-6.60
2018-02-27T15:20:13.621Z,-6.60
2018-02-27T15:22:41.436Z,-6.60
2018-02-27T15:25:09.206Z,-6.60
2018-02-27T15:27:37.002Z,-6.60
2018-02-27T15:30:04.837Z,-6.70
2018-02-27T15:32:32.611Z,-6.70
2018-02-27T15:35:00.370Z,-6.80
2018-02-27T15:37:28.191Z,-6.80
2018-02-27T15:39:56.722Z,-6.80
2018-02-27T15:42:24.514Z,-6.80
2018-02-27T15:44:53.109Z,-7.10
2018-02-27T15:47:21.650Z,-7.10
2018-02-27T15:49:49.515Z,-7.10
2018-02-27T15:52:17.347Z,-7.00
2018-02-27T15:54:45.130Z,-7.00
2018-02-27T15:57:12.901Z,-7.00
2018-02-27T15:59:40.730Z,-7.00
2018-02-27T16:02:08.500Z,-7.10
2018-02-27T16:04:36.281Z,-7.20
2018-02-27T16:07:04.104Z,-7.30
2018-02-27T16:09:31.911Z,-7.40
2018-02-27T16:11:59.683Z,-7.30
2018-02-27T16:14:27.502Z,-7.30
2018-02-27T16:16:55.312Z,-7.30
2018-02-27T16:19:23.089Z,-7.40
2018-02-27T16:21:50.901Z,-7.50
2018-02-27T16:24:18.678Z,-7.60
2018-02-27T16:26:46.470Z,-7.60
2018-02-27T16:29:14.319Z,-7.70
2018-02-27T16:31:42.087Z,-7.80
2018-02-27T16:34:10.634Z,-7.80
2018-02-27T16:36:38.466Z,-7.80
2018-02-27T16:39:07.030Z,-7.80
2018-02-27T16:41:34.798Z,-7.80
2018-02-27T16:44:03.385Z,-7.80
2018-02-27T16:46:32.506Z,-8.00
2018-02-27T16:49:00.293Z,-8.00
2018-02-27T16:51:28.316Z,-8.20
2018-02-27T16:53:56.969Z,-8.20
2018-02-27T16:56:24.801Z,-8.20
2018-02-27T16:58:52.636Z,-8.30
2018-02-27T17:01:20.409Z,-8.30
2018-02-27T17:03:48.207Z,-8.40
2018-02-27T17:06:16.036Z,-8.40
2018-02-27T17:08:43.949Z,-8.40
2018-02-27T17:11:11.765Z,-8.40
2018-02-27T17:13:40.492Z,-8.50
2018-02-27T17:16:08.266Z,-8.40
2018-02-27T17:18:36.041Z,-8.40
2018-02-27T17:21:04.818Z,-8.30
2018-02-27T17:23:32.635Z,-8.30
2018-02-27T17:26:00.416Z,-8.20
2018-02-27T17:28:29.078Z,-8.20
2018-02-27T17:30:57.713Z,-8.20
2018-02-27T17:33:25.485Z,-8.20
2018-02-27T17:35:54.135Z,-8.30
2018-02-27T17:38:21.909Z,-8.30
2018-02-27T17:40:49.691Z,-8.30
2018-02-27T17:43:18.286Z,-8.30
2018-02-27T17:45:46.070Z,-8.40
2018-02-27T17:48:14.730Z,-8.40
2018-02-27T17:50:42.686Z,-8.40
2018-02-27T17:53:11.223Z,-8.50
2018-02-27T17:55:38.998Z,-8.50
2018-02-27T17:58:07.234Z,-8.50
2018-02-27T18:00:35.036Z,-8.60
2018-02-27T18:03:02.815Z,-8.60
2018-02-27T18:05:32.155Z,-8.80
2018-02-27T18:08:00.040Z,-8.80
2018-02-27T18:10:27.933Z,-8.80
2018-02-27T18:12:56.561Z,-8.70
2018-02-27T18:15:24.325Z,-8.70
2018-02-27T18:17:54.369Z,-8.70
2018-02-27T18:20:22.528Z,-8.60
2018-02-27T18:22:50.293Z,-8.70
2018-02-27T18:25:18.135Z,-8.70
2018-02-27T18:27:46.020Z,-8.80
2018-02-27T18:30:14.611Z,-8.80
2018-02-27T18:32:42.378Z,-8.80
2018-02-27T18:35:10.865Z,-8.80
2018-02-27T18:37:39.550Z,-8.80
2018-02-27T18:40:07.317Z,-8.80
2018-02-27T18:42:35.149Z,-8.80
2018-02-27T18:45:03.112Z,-8.80
2018-02-27T18:47:30.913Z,-8.80
2018-02-27T18:49:59.618Z,-8.90
2018-02-27T18:52:28.389Z,-8.80
2018-02-27T18:54:57.032Z,-8.90
2018-02-27T18:57:24.963Z,-8.90
2018-02-27T18:59:53.709Z,-8.90
2018-02-27T19:02:22.127Z,-8.90
2018-02-27T19:04:50.262Z,-8.90
2018-02-27T19:07:18.031Z,-9.00
2018-02-27T19:09:46.559Z,-9.10
2018-02-27T19:12:14.400Z,-9.10
2018-02-27T19:14:42.165Z,-9.20
2018-02-27T19:17:10.524Z,-9.20
2018-02-27T19:19:39.210Z,-9.40
2018-02-27T19:22:07.751Z,-9.50
2018-02-27T19:24:35.698Z,-9.50
2018-02-27T19:27:03.525Z,-9.50
2018-02-27T19:29:31.310Z,-9.60
2018-02-27T19:31:59.773Z,-9.60
2018-02-27T19:34:27.602Z,-9.70
2018-02-27T19:36:56.970Z,-9.70
2018-02-27T19:39:24.738Z,-9.80
2018-02-27T19:41:52.627Z,-9.80
2018-02-27T19:44:21.364Z,-9.80
2018-02-27T19:46:49.333Z,-9.90
2018-02-27T19:49:17.152Z,-9.90
2018-02-27T19:51:45.688Z,-9.90
2018-02-27T19:54:14.229Z,-9.90
2018-02-27T19:56:42.371Z,-9.90
2018-02-27T19:59:10.138Z,-9.80
2018-02-27T20:01:38.969Z,-9.80
2018-02-27T20:04:06.804Z,-9.80
2018-02-27T20:06:35.641Z,-9.70
2018-02-27T20:09:03.433Z,-9.70
2018-02-27T20:11:31.246Z,-9.70
2018-02-27T20:14:01.994Z,-9.70
2018-02-27T20:16:29.762Z,-9.70
2018-02-27T20:18:57.597Z,-9.70
2018-02-27T20:21:25.373Z,-9.70
2018-02-27T20:23:58.818Z,-9.70
2018-02-27T20:26:27.461Z,-9.70
2018-02-27T20:29:00.965Z,-9.80
2018-02-27T20:31:30.895Z,-9.80
2018-02-27T20:33:58.738Z,-9.80
2018-02-27T20:36:26.560Z,-9.80
2018-02-27T20:38:59.906Z,-9.80
2018-02-27T20:41:27.739Z,-9.80
2018-02-27T20:43:55.512Z,-9.80
2018-02-27T20:46:23.734Z,-9.80
2018-02-27T20:48:51.657Z,-9.80
2018-02-27T20:51:19.853Z,-9.80
2018-02-27T20:53:47.773Z,-9.80
2018-02-27T20:56:15.639Z,-9.90
2018-02-27T20:58:43.434Z,-9.90
2018-02-27T21:01:11.200Z,-9.80
2018-02-27T21:03:39.076Z,-9.80
2018-02-27T21:06:08.105Z,-9.70
2018-02-27T21:08:35.912Z,-9.80
2018-02-27T21:11:03.770Z,-9.80
2018-02-27T21:13:31.590Z,-9.80
2018-02-27T21:16:00.063Z,-9.90
2018-02-27T21:18:27.902Z,-9.80
2018-02-27T21:20:55.708Z,-9.90
2018-02-27T21:23:23.498Z,-9.90
2018-02-27T21:25:51.334Z,-10.00
2018-02-27T21:28:19.969Z,-9.90
2018-02-27T21:30:48.522Z,-10.00
2018-02-27T21:33:16.364Z,-10.00
2018-02-27T21:35:44.138Z,-10.00
2018-02-27T21:38:13.519Z,-10.10
2018-02-27T21:40:41.357Z,-10.20
2018-02-27T21:43:09.159Z,-10.20
2018-02-27T21:45:36.948Z,-10.20
2018-02-27T21:48:04.836Z,-10.20
2018-02-27T21:50:32.729Z,-10.20
2018-02-27T21:53:00.566Z,-10.20
2018-02-27T21:55:29.177Z,-10.20
2018-02-27T21:57:56.998Z,-10.20
2018-02-27T22:00:25.570Z,-10.20
2018-02-27T22:02:53.406Z,-10.20
2018-02-27T22:05:21.884Z,-10.20
2018-02-27T22:07:50.569Z,-10.20
2018-02-27T22:10:18.393Z,-10.20
2018-02-27T22:12:46.244Z,-10.30
2018-02-27T22:15:14.786Z,-10.30
2018-02-27T22:17:42.622Z,-10.30
2018-02-27T22:20:10.558Z,-10.20
2018-02-27T22:22:38.376Z,-10.20
2018-02-27T22:25:06.552Z,-10.20
2018-02-27T22:27:35.131Z,-10.20
2018-02-27T22:30:02.915Z,-10.20
2018-02-27T22:32:30.741Z,-10.10
2018-02-27T22:34:58.761Z,-10.10
2018-02-27T22:37:27.303Z,-10.30
2018-02-27T22:39:55.182Z,-10.30
2018-02-27T22:42:22.957Z,-10.30
2018-02-27T22:44:51.508Z,-10.30
2018-02-27T22:47:19.344Z,-10.30
2018-02-27T22:49:47.119Z,-10.30
2018-02-27T22:52:15.760Z,-10.30
2018-02-27T22:54:44.396Z,-10.40
2018-02-27T22:57:12.251Z,-10.40
2018-02-27T22:59:40.039Z,-10.30
2018-02-27T23:02:07.873Z,-10.40
2018-02-27T23:04:36.429Z,-10.50
2018-02-27T23:07:04.195Z,-10.50
2018-02-27T23:09:32.044Z,-10.50
2018-02-27T23:11:59.819Z,-10.50
2018-02-27T23:14:27.596Z,-10.50
2018-02-27T23:16:55.484Z,-10.50
2018-02-27T23:19:23.262Z,-10.40
2018-02-27T23:21:51.035Z,-10.50
2018-02-27T23:37:54.415Z,-10.60
2018-02-27T23:40:22.954Z,-10.60
2018-02-27T23:42:50.715Z,-10.60
2018-02-27T23:45:18.560Z,-10.70
2018-02-27T23:47:46.323Z,-10.60
2018-02-27T23:50:14.086Z,-10.60
2018-02-27T23:52:41.898Z,-10.60
2018-02-27T23:55:09.658Z,-10.70
2018-02-27T23:57:37.410Z,-10.70
